createdAt,value
2023-03-15T00:00:12.346Z,6.04
2023-03-15T00:05:14.101Z,6.06
2023-03-15T00:10:15.916Z,5.97
2023-03-15T00:15:17.515Z,5.99
2023-03-15T00:20:19.964Z,5.78
2023-03-15T00:25:21.758Z,5.88
2023-03-15T00:30:23.451Z,5.90
2023-03-15T00:35:25.292Z,5.82
2023-03-15T00:40:27.197Z,5.63
2023-03-15T00:45:28.745Z,5.73
2023-03-15T00:50:30.315Z,5.80
2023-03-15T00:55:31.889Z,5.69
2023-03-15T01:00:33.481Z,5.61
2023-03-15T01:05:36.217Z,5.76
2023-03-15T01:10:37.771Z,5.67
2023-03-15T01:15:39.414Z,5.55
2023-03-15T01:20:43.787Z,5.67
2023-03-15T01:25:45.320Z,5.69
2023-03-15T01:30:51.396Z,5.45
2023-03-15T01:36:01.027Z,5.69
2023-03-15T01:41:03.449Z,5.68
2023-03-15T01:46:06.958Z,5.65
2023-03-15T01:51:21.837Z,5.65
2023-03-15T01:56:24.428Z,5.60
2023-03-15T02:01:26.175Z,5.50
2023-03-15T02:06:27.996Z,5.49
2023-03-15T02:11:30.561Z,5.56
2023-03-15T02:16:32.302Z,5.40
2023-03-15T02:22:20.654Z,5.60
2023-03-15T02:27:28.893Z,5.55
2023-03-15T02:32:31.351Z,5.47
2023-03-15T02:37:33.048Z,5.63
2023-03-15T02:42:34.644Z,5.49
2023-03-15T02:47:36.262Z,5.45
2023-03-15T02:52:37.853Z,5.58
2023-03-15T02:57:39.545Z,5.61
2023-03-15T03:02:43.555Z,5.54
2023-03-15T03:07:45.806Z,5.16
2023-03-15T03:12:53.301Z,5.43
2023-03-15T03:17:59.581Z,5.27
2023-03-15T03:23:05.902Z,5.14
2023-03-15T03:28:07.926Z,5.16
2023-03-15T03:33:09.696Z,5.07
2023-03-15T03:38:11.979Z,4.87
2023-03-15T03:43:16.855Z,4.90
2023-03-15T03:48:19.323Z,4.86
2023-03-15T03:53:20.942Z,4.87
2023-03-15T03:58:23.232Z,4.86
2023-03-15T04:03:38.980Z,4.70
2023-03-15T04:08:45.302Z,4.72
2023-03-15T04:13:51.636Z,4.67
2023-03-15T04:18:56.536Z,4.73
2023-03-15T04:23:59.980Z,4.61
2023-03-15T04:29:14.539Z,4.82
2023-03-15T04:34:38.912Z,4.82
2023-03-15T04:40:02.615Z,4.30
2023-03-15T04:45:23.795Z,4.80
2023-03-15T04:50:48.669Z,4.86
2023-03-15T04:55:56.479Z,4.87
2023-03-15T05:01:23.270Z,4.91
2023-03-15T05:06:32.917Z,4.98
2023-03-15T05:11:55.415Z,4.43
2023-03-15T05:17:33.651Z,4.93
2023-03-15T05:22:54.690Z,4.79
2023-03-15T05:28:18.321Z,4.89
2023-03-15T05:33:46.838Z,4.86
2023-03-15T05:39:08.865Z,4.74
2023-03-15T05:44:36.916Z,4.71
2023-03-15T05:49:38.481Z,4.72
2023-03-15T05:55:00.419Z,4.79
2023-03-15T06:00:02.094Z,4.92
2023-03-15T06:05:15.791Z,5.09
2023-03-15T06:10:17.566Z,5.19
2023-03-15T06:15:19.993Z,5.28
2023-03-15T06:20:22.803Z,5.36
2023-03-15T06:25:24.558Z,5.47
2023-03-15T06:30:26.420Z,5.51
2023-03-15T06:35:32.115Z,5.61
2023-03-15T06:40:34.101Z,5.72
2023-03-15T06:45:35.788Z,5.87
2023-03-15T06:50:46.969Z,5.83
2023-03-15T06:55:50.772Z,5.84
2023-03-15T07:00:52.361Z,5.67
2023-03-15T07:05:54.696Z,6.08
2023-03-15T07:10:56.298Z,6.16
2023-03-15T07:15:57.945Z,6.02
2023-03-15T07:21:00.861Z,6.54
2023-03-15T07:26:02.637Z,6.62
2023-03-15T07:31:05.747Z,6.88
2023-03-15T07:36:08.108Z,6.70
2023-03-15T07:41:09.697Z,7.03
2023-03-15T07:46:15.507Z,7.08
2023-03-15T07:51:17.160Z,7.20
2023-03-15T07:56:19.784Z,7.38
2023-03-15T08:01:21.700Z,7.05
2023-03-15T08:06:23.381Z,7.34
2023-03-15T08:11:24.991Z,7.19
2023-03-15T08:16:26.675Z,7.61
2023-03-15T08:21:28.297Z,7.62
2023-03-15T08:26:29.861Z,7.73
2023-03-15T08:31:31.570Z,8.05
2023-03-15T08:36:33.212Z,7.86
2023-03-15T08:41:34.886Z,7.47
2023-03-15T08:46:36.666Z,7.21
2023-03-15T08:51:38.261Z,7.39
2023-03-15T08:56:41.317Z,7.21
2023-03-15T09:01:44.860Z,7.12
2023-03-15T09:06:46.490Z,7.21
2023-03-15T09:11:48.073Z,6.95
2023-03-15T09:16:49.691Z,6.82
2023-03-15T09:21:51.392Z,6.18
2023-03-15T09:26:52.959Z,6.90
2023-03-15T09:31:54.942Z,7.17
2023-03-15T09:36:56.987Z,7.03
2023-03-15T09:41:59.925Z,7.17
2023-03-15T09:47:10.046Z,6.39
2023-03-15T09:52:45.583Z,6.77
2023-03-15T09:57:52.124Z,6.86
2023-03-15T10:03:07.037Z,6.99
2023-03-15T10:08:17.547Z,6.88
2023-03-15T10:13:43.696Z,6.85
2023-03-15T10:18:48.105Z,6.48
2023-03-15T10:23:54.253Z,6.92
2023-03-15T10:28:55.834Z,6.90
2023-03-15T10:33:57.480Z,6.65
2023-03-15T10:38:59.324Z,7.14
2023-03-15T10:44:04.623Z,7.10
2023-03-15T10:49:14.042Z,6.93
2023-03-15T10:54:24.035Z,7.05
2023-03-15T10:59:27.791Z,7.37
2023-03-15T11:04:33.793Z,7.36
2023-03-15T11:09:44.763Z,7.22
2023-03-15T11:14:48.663Z,7.31
2023-03-15T11:20:09.486Z,6.82
2023-03-15T11:25:15.420Z,7.43
2023-03-15T11:30:17.324Z,7.65
2023-03-15T11:35:24.567Z,7.54
2023-03-15T11:40:42.540Z,7.82
2023-03-15T11:46:06.189Z,7.75
2023-03-15T11:51:16.167Z,7.73
2023-03-15T11:56:26.961Z,7.84
2023-03-15T12:01:28.538Z,7.58
2023-03-15T12:06:37.909Z,7.70
2023-03-15T12:11:41.651Z,7.48
2023-03-15T12:16:45.856Z,7.59
2023-03-15T12:21:51.640Z,7.49
2023-03-15T12:27:02.649Z,7.88
2023-03-15T12:32:04.165Z,7.62
2023-03-15T12:37:21.318Z,7.62
2023-03-15T12:42:32.060Z,7.81
2023-03-15T12:47:49.855Z,7.73
2023-03-15T12:52:53.563Z,7.45
2023-03-15T12:57:57.832Z,7.55
2023-03-15T13:03:06.401Z,7.49
2023-03-15T13:08:21.909Z,7.37
2023-03-15T13:13:39.630Z,7.73
2023-03-15T13:18:52.821Z,7.86
2023-03-15T13:23:57.715Z,7.83
2023-03-15T13:29:21.835Z,7.68
2023-03-15T13:34:24.367Z,8.10
2023-03-15T13:39:30.429Z,8.34
2023-03-15T13:44:33.543Z,8.27
2023-03-15T13:49:35.200Z,8.03
2023-03-15T13:54:36.753Z,8.14
2023-03-15T13:59:46.209Z,7.89
2023-03-15T14:04:59.852Z,8.13
2023-03-15T14:10:30.964Z,7.97
2023-03-15T14:15:32.479Z,7.36
2023-03-15T14:20:40.826Z,7.41
2023-03-15T14:25:42.883Z,7.60
2023-03-15T14:30:52.049Z,7.57
2023-03-15T14:35:57.458Z,7.53
2023-03-15T14:41:33.649Z,7.88
2023-03-15T14:46:35.256Z,7.70
2023-03-15T14:51:36.830Z,7.68
2023-03-15T14:56:39.655Z,8.13
2023-03-15T15:01:46.500Z,8.37
2023-03-15T15:06:52.103Z,8.12
2023-03-15T15:11:54.326Z,8.18
2023-03-15T15:16:56.187Z,8.24
2023-03-15T15:21:57.811Z,8.07
2023-03-15T15:29:14.688Z,7.96
2023-03-15T15:34:16.267Z,8.10
2023-03-15T15:39:27.521Z,8.19
2023-03-15T15:44:29.225Z,8.20
2023-03-15T15:49:30.815Z,8.12
2023-03-15T15:54:35.580Z,7.31
2023-03-15T15:59:37.173Z,7.47
2023-03-15T16:04:40.625Z,7.15
2023-03-15T16:09:45.539Z,7.17
2023-03-15T16:14:47.125Z,6.92
2023-03-15T16:19:52.143Z,7.30
2023-03-15T16:24:55.488Z,7.12
2023-03-15T16:29:57.164Z,7.27
2023-03-15T16:34:58.717Z,7.30
2023-03-15T16:40:01.660Z,7.24
2023-03-15T16:45:12.228Z,7.34
2023-03-15T16:50:14.131Z,7.27
2023-03-15T16:55:18.673Z,7.20
2023-03-15T17:00:20.829Z,7.10
2023-03-15T17:05:24.659Z,7.10
2023-03-15T17:10:32.618Z,7.09
2023-03-15T17:15:34.249Z,6.88
2023-03-15T17:20:35.804Z,7.01
2023-03-15T17:25:37.408Z,6.87
2023-03-15T17:30:39.012Z,6.85
2023-03-15T17:35:43.928Z,6.79
2023-03-15T17:40:45.708Z,6.77
2023-03-15T17:45:47.628Z,6.85
2023-03-15T17:50:49.374Z,6.64
2023-03-15T17:55:53.440Z,6.86
2023-03-15T18:00:55.240Z,6.71
2023-03-15T18:05:57.625Z,6.61
2023-03-15T18:10:59.291Z,6.10
2023-03-15T18:16:00.980Z,6.06
2023-03-15T18:21:02.588Z,6.41
2023-03-15T18:26:04.695Z,6.45
2023-03-15T18:31:13.982Z,6.14
2023-03-15T18:36:16.220Z,6.12
2023-03-15T18:41:20.998Z,6.05
2023-03-15T18:46:24.639Z,6.09
2023-03-15T18:51:28.078Z,5.86
2023-03-15T18:56:34.364Z,5.93
2023-03-15T19:01:36.083Z,5.74
2023-03-15T19:06:37.822Z,5.89
2023-03-15T19:11:41.716Z,5.72
2023-03-15T19:16:43.352Z,5.70
2023-03-15T19:21:44.918Z,5.67
2023-03-15T19:26:46.486Z,5.68
2023-03-15T19:31:48.043Z,5.59
2023-03-15T19:36:49.676Z,5.47
2023-03-15T19:41:51.300Z,5.42
2023-03-15T19:46:52.905Z,5.40
2023-03-15T19:51:54.487Z,5.31
2023-03-15T19:56:58.456Z,5.21
2023-03-15T20:02:00.077Z,5.22
2023-03-15T20:07:01.732Z,5.21
2023-03-15T20:12:04.036Z,5.16
2023-03-15T20:17:05.779Z,5.06
2023-03-15T20:22:07.371Z,5.04
2023-03-15T20:27:08.961Z,4.99
2023-03-15T20:32:10.608Z,4.96
2023-03-15T20:37:13.436Z,4.56
2023-03-15T20:42:15.051Z,4.67
2023-03-15T20:47:17.398Z,4.80
2023-03-15T20:52:18.931Z,4.65
2023-03-15T20:57:21.026Z,4.63
2023-03-15T21:02:22.672Z,4.55
2023-03-15T21:07:24.456Z,4.50
2023-03-15T21:12:25.998Z,4.38
2023-03-15T21:17:27.845Z,4.42
2023-03-15T21:22:29.434Z,4.34
2023-03-15T21:27:32.736Z,4.28
2023-03-15T21:32:35.557Z,4.14
2023-03-15T21:37:37.342Z,4.12
2023-03-15T21:42:39.660Z,4.07
2023-03-15T21:47:41.529Z,3.93
2023-03-15T21:52:44.850Z,3.92
2023-03-15T21:57:46.386Z,3.87
2023-03-15T22:02:48.706Z,3.77
2023-03-15T22:07:50.370Z,3.70
2023-03-15T22:12:54.557Z,3.65
2023-03-15T22:17:56.325Z,3.63
2023-03-15T22:22:57.878Z,3.60
2023-03-15T22:27:59.878Z,3.41
2023-03-15T22:33:01.707Z,3.48
2023-03-15T22:38:09.916Z,3.38
2023-03-15T22:43:11.743Z,3.54
2023-03-15T22:48:13.371Z,3.45
2023-03-15T22:53:14.936Z,3.47
2023-03-15T22:58:16.569Z,3.37
2023-03-15T23:03:18.646Z,3.32
2023-03-15T23:08:20.492Z,3.17
2023-03-15T23:13:22.080Z,3.17
2023-03-15T23:18:23.684Z,3.21
2023-03-15T23:23:27.033Z,3.10
2023-03-15T23:28:29.079Z,3.09
2023-03-15T23:33:33.973Z,3.16
2023-03-15T23:38:35.618Z,3.08
2023-03-15T23:43:37.180Z,2.98
2023-03-15T23:48:38.886Z,2.88
2023-03-15T23:53:40.533Z,2.92
2023-03-15T23:58:42.200Z,2.95
